CheckWX is a tool to help pilots better visualize weather data.  It is not intended as a substitute for an official pre-flight weather briefing.

06:07:23 UTC

KGNV TAF
Gainesville Regional Airport
Gainesville, Florida, USA
KGNV 260520Z 2606/2706 VRB03KT P6SM SKC FM261400 36005KT P6SM SCT030 SCT250 FM262100 36008KT P6SM VCTS SCT040CB SCT250 FM270300 VRB03KT P6SM BKN250

Jun-26@
06:00 UTC

Jun-26 @ 06:00 UTC

Jun-26@
14:00 UTC

Jun-26 @ 14:00 UTC

KGNV 260520Z 2606/2706 VRB03KT P6SM SKC
Wind
  • Variable at 3 KTS
Cloud Levels
  • Clear skies

Jun-26@
14:00 UTC

Jun-26 @ 14:00 UTC

Jun-26@
21:00 UTC

Jun-26 @ 21:00 UTC

FM261400 36005KT P6SM SCT030 SCT250

From

From Standard forecast or significant change

Wind
  • 360° at 5 KTS
Cloud Levels
  • Scattered at 3,000' AGL
  • Scattered at 25,000' AGL

Jun-26@
21:00 UTC

Jun-26 @ 21:00 UTC

Jun-27@
03:00 UTC

Jun-27 @ 03:00 UTC

FM262100 36008KT P6SM VCTS SCT040CB SCT250

From

From Standard forecast or significant change

Wind
  • 360° at 8 KTS
Conditions
Area Thunderstorm
Cloud Levels
  • Scattered at 4,000' AGL
  • Scattered at 25,000' AGL

Jun-27@
03:00 UTC

Jun-27 @ 03:00 UTC

Jun-27@
06:00 UTC

Jun-27 @ 06:00 UTC

FM270300 VRB03KT P6SM BKN250

From

From Standard forecast or significant change

Wind
  • Variable at 3 KTS
Cloud Levels
  • Broken at 25,000' AGL